Terminal Aerodrome Forecast
Issued by NWS La Crosse, WI

Home | Current Version | Previous Version | Text Only | Print | Product List | Glossary On
Versions: 1 2 3 4 5 6 7 8 9 10 11 12 13 14 15 16 17 18 19 20 21 22 23 24 25 26 27 28 29 30 31 32 33 34 35 36
000
FTUS43 KARX 271139
TAFLSE
TAF
KLSE 271139Z 2712/2812 VRB03KT P6SM BKN080
     FM271600 VRB03KT P6SM FEW040
     FM280200 12003KT P6SM SCT250
     FM280600 12003KT P6SM BKN250
     FM280900 12004KT P6SM BKN070=

USA.gov is the U.S. government's official web portal to all federal, state and local government web resources and services.